Time;durP1;ratioP1;P1;durP2;ratioP2;P2;SDS_P1;SDS_P2;PMS_P1;PMS_P2;Temp;Humidity;BMP_temperature;BMP_pressure;BME280_temperature;BME280_humidity;BME280_pressure;Samples;Min_cycle;Max_cycle;Signal;HPM_P1;HPM_P2
2023/11/19 00:01:05;;;;;;;13.00;8.10;;;5.60;99.90;;;;;;4880836;29;20082;-59
2023/11/19 00:03:31;;;;;;;9.98;6.45;;;5.60;99.90;;;;;;4880618;29;20051;-60
2023/11/19 00:05:56;;;;;;;6.00;4.85;;;5.70;99.90;;;;;;4912013;29;20065;-61
2023/11/19 00:08:24;;;;;;;6.22;4.90;;;5.60;99.90;;;;;;4901551;29;20056;-58
2023/11/19 00:10:50;;;;;;;7.35;5.32;;;5.60;99.90;;;;;;4938424;29;20032;-60
2023/11/19 00:13:16;;;;;;;8.48;6.35;;;5.40;99.90;;;;;;4949172;29;20039;-64
2023/11/19 00:15:42;;;;;;;7.50;5.90;;;5.40;99.90;;;;;;4946120;28;20043;-64
2023/11/19 00:18:08;;;;;;;11.02;7.93;;;5.40;99.90;;;;;;4923430;29;20080;-62
2023/11/19 00:20:34;;;;;;;7.55;5.68;;;;;;;;;;4945445;29;20063;-61
2023/11/19 00:23:01;;;;;;;6.72;5.40;;;5.20;99.90;;;;;;4944966;28;20020;-57
2023/11/19 00:25:27;;;;;;;7.30;5.10;;;5.20;99.90;;;;;;4944770;28;20117;-56
2023/11/19 00:27:53;;;;;;;6.70;4.63;;;;;;;;;;4946120;29;20067;-59
2023/11/19 00:30:19;;;;;;;6.78;5.07;;;5.30;99.90;;;;;;4937120;29;20031;-59
2023/11/19 00:32:45;;;;;;;6.75;5.50;;;5.30;99.90;;;;;;4947595;28;20023;-63
2023/11/19 00:35:13;;;;;;;6.55;5.65;;;5.40;99.90;;;;;;4937295;29;20040;-60
2023/11/19 00:37:39;;;;;;;6.82;5.88;;;5.40;99.90;;;;;;4938038;29;20035;-66
2023/11/19 00:40:06;;;;;;;7.35;5.97;;;5.40;99.90;;;;;;4926948;29;20118;-59
2023/11/19 00:42:31;;;;;;;6.55;5.05;;;5.40;99.90;;;;;;4934598;29;20591;-61
2023/11/19 00:44:57;;;;;;;6.53;4.88;;;5.40;99.90;;;;;;4924358;29;20123;-64
2023/11/19 00:47:23;;;;;;;7.03;5.28;;;5.30;99.90;;;;;;4942872;29;20058;-62
2023/11/19 00:49:50;;;;;;;7.40;5.22;;;5.30;99.90;;;;;;4947177;28;20023;-59
2023/11/19 00:52:16;;;;;;;6.45;5.22;;;5.40;99.90;;;;;;4942285;28;20091;-57
2023/11/19 00:54:45;;;;;;;7.13;5.78;;;5.30;99.90;;;;;;4952453;28;20035;-61
2023/11/19 00:57:13;;;;;;;6.38;5.40;;;5.30;99.90;;;;;;4934954;29;20105;-58
2023/11/19 00:59:42;;;;;;;6.88;5.53;;;5.30;99.90;;;;;;4950865;28;20039;-62
2023/11/19 01:02:08;;;;;;;6.03;5.18;;;5.30;99.90;;;;;;4952346;28;20063;-61
2023/11/19 01:04:38;;;;;;;7.50;5.63;;;5.30;99.90;;;;;;4902537;29;20067;-63
2023/11/19 01:07:04;;;;;;;6.80;5.45;;;5.30;99.90;;;;;;4951821;28;20039;-64
2023/11/19 01:09:34;;;;;;;6.07;5.07;;;5.10;99.90;;;;;;4952356;28;20020;-59
2023/11/19 01:12:02;;;;;;;6.68;5.25;;;5.10;99.90;;;;;;4935163;29;20123;-54
2023/11/19 01:14:28;;;;;;;6.97;5.07;;;;;;;;;;4951631;29;20023;-64
2023/11/19 01:16:54;;;;;;;5.53;4.90;;;5.10;99.90;;;;;;4950541;28;20535;-60
2023/11/19 01:19:24;;;;;;;6.80;5.20;;;5.20;99.90;;;;;;4951777;28;20039;-58
2023/11/19 01:21:50;;;;;;;6.78;5.20;;;5.00;99.90;;;;;;4952146;29;20039;-61
2023/11/19 01:24:16;;;;;;;9.93;7.43;;;5.10;99.90;;;;;;4951955;28;20035;-54
2023/11/19 01:26:45;;;;;;;9.60;5.60;;;5.20;99.90;;;;;;4951965;29;20039;-59
2023/11/19 01:29:14;;;;;;;7.25;5.03;;;5.30;99.90;;;;;;4948097;28;20177;-61
2023/11/19 01:31:45;;;;;;;6.22;4.85;;;5.30;99.90;;;;;;4951936;29;20027;-61
2023/11/19 01:34:11;;;;;;;8.35;5.10;;;5.30;99.90;;;;;;4951767;28;20028;-62
2023/11/19 01:36:37;;;;;;;5.65;4.28;;;5.30;99.90;;;;;;4952238;28;20042;-57
2023/11/19 01:39:06;;;;;;;5.80;4.57;;;5.10;99.90;;;;;;4946871;29;20027;-55
2023/11/19 01:41:36;;;;;;;6.53;4.95;;;5.10;99.90;;;;;;4950095;29;20054;-61
2023/11/19 01:44:02;;;;;;;6.93;4.80;;;5.10;99.90;;;;;;4951365;29;20034;-61
2023/11/19 01:46:28;;;;;;;5.50;4.20;;;5.00;99.90;;;;;;4951838;28;20043;-63
2023/11/19 01:48:55;;;;;;;6.90;5.28;;;5.20;99.90;;;;;;4951729;29;20024;-60
2023/11/19 01:51:21;;;;;;;6.93;4.97;;;5.20;99.90;;;;;;4955132;28;20082;-57
2023/11/19 01:53:49;;;;;;;6.53;5.53;;;5.20;99.90;;;;;;4957220;28;20449;-59
2023/11/19 01:56:15;;;;;;;5.88;4.60;;;5.10;99.90;;;;;;4965021;28;20031;-59
2023/11/19 01:58:44;;;;;;;7.10;5.15;;;5.10;99.90;;;;;;4962716;28;20059;-58
2023/11/19 02:01:11;;;;;;;8.05;4.78;;;5.10;99.90;;;;;;4958252;28;20059;-56
2023/11/19 02:03:37;;;;;;;8.38;5.45;;;5.00;99.90;;;;;;4960364;28;20042;-61
2023/11/19 02:06:04;;;;;;;7.63;5.03;;;5.00;99.90;;;;;;4971583;28;20053;-58
2023/11/19 02:08:30;;;;;;;7.25;4.60;;;5.00;99.90;;;;;;4966012;28;20055;-61
2023/11/19 02:10:59;;;;;;;6.30;5.13;;;4.90;99.90;;;;;;4961228;28;20023;-59
2023/11/19 02:13:26;;;;;;;6.20;4.75;;;4.70;99.90;;;;;;4967365;28;20487;-58
2023/11/19 02:15:52;;;;;;;7.93;4.75;;;4.70;99.90;;;;;;4966280;28;20403;-61
2023/11/19 02:18:29;;;;;;;7.75;5.15;;;4.60;99.90;;;;;;4965333;28;20045;-55
2023/11/19 02:20:56;;;;;;;7.22;5.00;;;4.60;99.90;;;;;;4970757;28;20080;-55
2023/11/19 02:23:22;;;;;;;6.07;4.93;;;4.50;99.90;;;;;;4969495;28;20027;-66
2023/11/19 02:26:16;;;;;;;5.53;4.75;;;4.60;99.90;;;;;;4922434;28;20043;-63
2023/11/19 02:28:43;;;;;;;7.28;5.68;;;4.60;99.90;;;;;;4966869;28;20090;-61
2023/11/19 02:31:09;;;;;;;7.05;5.03;;;4.70;99.90;;;;;;4966500;28;20538;-62
2023/11/19 02:33:36;;;;;;;8.07;5.82;;;4.70;99.90;;;;;;4965855;28;20491;-57
2023/11/19 02:36:03;;;;;;;5.68;4.57;;;4.80;99.90;;;;;;4963291;28;20065;-58
2023/11/19 02:38:30;;;;;;;6.75;4.82;;;4.70;99.90;;;;;;4933111;28;20039;-57
2023/11/19 02:40:57;;;;;;;5.93;5.20;;;4.70;99.90;;;;;;4966964;28;20038;-62
2023/11/19 02:43:23;;;;;;;7.05;5.40;;;4.70;99.90;;;;;;4962205;28;20442;-60
2023/11/19 02:45:49;;;;;;;7.55;5.20;;;4.80;99.90;;;;;;4970986;28;20113;-61
2023/11/19 02:48:15;;;;;;;7.32;5.30;;;4.80;99.90;;;;;;4912767;28;20126;-57
2023/11/19 02:50:42;;;;;;;7.53;5.53;;;4.80;99.90;;;;;;4934240;28;20050;-57
2023/11/19 02:53:08;;;;;;;6.95;5.53;;;4.80;99.90;;;;;;4958486;28;20032;-58
2023/11/19 02:55:37;;;;;;;8.18;5.00;;;4.70;99.90;;;;;;4965590;28;20484;-60
2023/11/19 02:58:19;;;;;;;5.78;4.82;;;4.80;99.90;;;;;;4967644;28;20038;-57
2023/11/19 03:00:54;;;;;;;6.22;5.25;;;4.80;99.90;;;;;;4963177;28;20066;-59
2023/11/19 03:03:22;;;;;;;6.60;5.18;;;4.80;99.90;;;;;;4929999;29;20566;-62
2023/11/19 03:05:48;;;;;;;9.90;5.15;;;4.70;99.90;;;;;;4964409;28;20054;-54
2023/11/19 03:08:17;;;;;;;6.53;5.13;;;4.70;99.90;;;;;;4945517;28;20043;-63
2023/11/19 03:10:43;;;;;;;8.02;5.10;;;4.60;99.90;;;;;;4961654;28;20577;-58
2023/11/19 03:13:19;;;;;;;6.53;5.28;;;4.70;99.90;;;;;;4967730;28;20027;-58
2023/11/19 03:15:45;;;;;;;7.03;5.80;;;4.70;99.90;;;;;;4961402;28;20477;-62
2023/11/19 03:18:11;;;;;;;6.20;4.80;;;4.70;99.90;;;;;;4961592;28;20531;-61
2023/11/19 03:20:37;;;;;;;6.32;4.80;;;4.90;99.90;;;;;;4966719;28;20041;-58
2023/11/19 03:23:03;;;;;;;6.75;5.47;;;5.00;99.90;;;;;;4919121;28;20453;-64
2023/11/19 03:25:36;;;;;;;6.53;5.10;;;5.00;99.90;;;;;;4968179;28;20073;-62
2023/11/19 03:28:03;;;;;;;6.75;4.63;;;5.00;99.90;;;;;;4964838;28;20482;-59
2023/11/19 03:30:29;;;;;;;6.00;4.75;;;5.10;99.90;;;;;;4936336;28;20075;-55
2023/11/19 03:32:57;;;;;;;7.07;5.03;;;5.10;99.90;;;;;;4932929;28;20042;-60
2023/11/19 03:35:23;;;;;;;5.63;4.82;;;5.30;99.90;;;;;;4961926;28;20031;-60
2023/11/19 03:37:50;;;;;;;6.07;4.97;;;;;;;;;;4965098;28;20037;-65
2023/11/19 03:40:16;;;;;;;6.32;4.80;;;5.30;99.90;;;;;;4965445;28;20549;-58
2023/11/19 03:42:43;;;;;;;6.18;4.60;;;5.40;99.90;;;;;;4964421;28;20035;-61
2023/11/19 03:45:09;;;;;;;5.80;4.85;;;5.50;99.90;;;;;;4963197;28;20046;-63
2023/11/19 03:47:35;;;;;;;9.02;5.80;;;5.50;99.90;;;;;;4970083;28;20042;-60
2023/11/19 03:50:02;;;;;;;6.65;4.97;;;5.50;99.90;;;;;;4932630;28;20475;-59
2023/11/19 03:52:28;;;;;;;6.03;5.07;;;5.60;99.90;;;;;;4961365;28;20058;-62
2023/11/19 03:54:57;;;;;;;6.40;4.57;;;5.60;99.90;;;;;;4961577;28;20043;-64
2023/11/19 03:57:23;;;;;;;5.43;4.32;;;5.60;99.90;;;;;;4967680;28;20046;-62
2023/11/19 03:59:49;;;;;;;6.72;5.15;;;5.60;99.90;;;;;;4968320;28;20118;-58
2023/11/19 04:02:16;;;;;;;5.95;4.47;;;5.60;99.90;;;;;;4962919;28;20043;-58
2023/11/19 04:04:42;;;;;;;6.43;5.00;;;5.70;99.90;;;;;;4963064;28;20106;-61
2023/11/19 04:07:08;;;;;;;6.13;4.65;;;5.70;99.90;;;;;;4959291;28;20128;-59
2023/11/19 04:09:33;;;;;;;5.95;4.57;;;5.60;99.90;;;;;;4964590;28;20085;-59
2023/11/19 04:12:00;;;;;;;5.22;4.15;;;5.70;99.90;;;;;;4959925;28;20158;-63
2023/11/19 04:14:26;;;;;;;5.63;4.57;;;5.60;99.90;;;;;;4963433;28;20383;-58
2023/11/19 04:16:53;;;;;;;6.18;4.68;;;5.60;99.90;;;;;;4961326;28;20031;-59
2023/11/19 04:19:19;;;;;;;5.35;4.22;;;5.60;99.90;;;;;;4963728;28;20034;-60
2023/11/19 04:21:45;;;;;;;6.43;4.88;;;5.60;99.90;;;;;;4969162;28;20034;-64
2023/11/19 04:24:13;;;;;;;7.50;5.20;;;5.50;99.90;;;;;;4963693;28;20035;-56
2023/11/19 04:26:44;;;;;;;6.82;4.75;;;5.60;99.90;;;;;;4961889;28;20105;-63
2023/11/19 04:29:16;;;;;;;5.25;4.47;;;5.70;99.90;;;;;;4966231;28;20172;-59
2023/11/19 04:31:43;;;;;;;;;;;5.70;99.90;;;;;;4966195;28;20129;-57
2023/11/19 04:34:08;;;;;;;6.20;4.78;;;5.70;99.90;;;;;;4962766;28;20019;-59
2023/11/19 04:36:34;;;;;;;5.18;4.30;;;5.70;99.90;;;;;;4962892;28;20053;-60
2023/11/19 04:39:00;;;;;;;5.93;4.22;;;5.70;99.90;;;;;;4960411;28;20490;-61
2023/11/19 04:41:30;;;;;;;7.90;4.50;;;5.50;99.90;;;;;;4959354;28;20375;-62
2023/11/19 04:43:56;;;;;;;8.02;4.70;;;5.50;99.90;;;;;;4964160;28;20031;-55
2023/11/19 04:46:21;;;;;;;6.78;4.45;;;5.50;99.90;;;;;;4963627;28;20035;-62
2023/11/19 04:48:48;;;;;;;6.88;4.07;;;5.50;99.90;;;;;;4969256;28;20026;-61
2023/11/19 04:51:14;;;;;;;6.40;4.53;;;5.50;99.90;;;;;;4927819;29;20051;-55
2023/11/19 04:53:39;;;;;;;6.55;4.40;;;5.60;99.90;;;;;;4942202;29;20383;-62
2023/11/19 04:56:09;;;;;;;5.97;4.95;;;5.60;99.90;;;;;;4945053;29;20050;-60
2023/11/19 04:58:35;;;;;;;6.57;4.65;;;5.60;99.90;;;;;;4907685;29;20381;-61
2023/11/19 05:01:01;;;;;;;4.93;3.83;;;5.70;99.90;;;;;;4942721;29;20039;-58
2023/11/19 05:03:27;;;;;;;8.00;4.75;;;5.70;99.90;;;;;;4942101;29;20558;-61
2023/11/19 05:05:53;;;;;;;8.40;4.72;;;5.80;99.90;;;;;;4943485;29;20039;-61
2023/11/19 05:08:19;;;;;;;9.52;5.10;;;5.80;99.90;;;;;;4942635;29;20044;-57
2023/11/19 05:10:45;;;;;;;8.40;5.72;;;5.80;99.90;;;;;;4943659;28;20082;-59
2023/11/19 05:13:11;;;;;;;7.60;4.57;;;5.90;99.90;;;;;;4925576;29;20054;-60
2023/11/19 05:15:36;;;;;;;5.70;4.60;;;5.80;99.90;;;;;;4941865;29;20487;-63
2023/11/19 05:18:02;;;;;;;6.80;5.13;;;5.80;99.90;;;;;;4944673;29;20070;-58
2023/11/19 05:20:28;;;;;;;5.90;4.47;;;5.80;99.90;;;;;;4904943;29;20043;-59
2023/11/19 05:22:53;;;;;;;6.45;4.47;;;5.50;99.90;;;;;;4940407;29;20106;-62
2023/11/19 05:25:22;;;;;;;12.02;7.07;;;5.00;99.90;;;;;;4947957;29;20039;-64
2023/11/19 05:27:48;;;;;;;11.82;7.88;;;;;;;;;;4942807;29;20070;-55
2023/11/19 05:30:15;;;;;;;12.43;8.68;;;;;;;;;;4943912;29;20031;-57
2023/11/19 05:32:41;;;;;;;14.85;11.73;;;;;;;;;;4948647;29;20046;-61
2023/11/19 05:35:08;;;;;;;14.13;10.70;;;3.80;99.90;;;;;;4944092;29;20027;-59
2023/11/19 05:37:34;;;;;;;16.40;11.23;;;4.10;99.90;;;;;;4910869;29;20040;-56
2023/11/19 05:40:03;;;;;;;11.18;8.93;;;4.50;99.90;;;;;;4940403;29;20032;-59
2023/11/19 05:42:28;;;;;;;11.68;8.38;;;4.80;99.90;;;;;;4948791;29;20047;-61
2023/11/19 05:44:54;;;;;;;12.57;8.23;;;5.00;99.90;;;;;;4913236;29;20031;-61
2023/11/19 05:47:20;;;;;;;11.80;8.43;;;5.30;99.90;;;;;;4947439;29;20062;-62
2023/11/19 05:49:46;;;;;;;14.00;9.60;;;5.30;99.90;;;;;;4944058;29;20042;-59
2023/11/19 05:52:12;;;;;;;23.52;17.52;;;5.40;99.90;;;;;;4964059;28;20134;-61
2023/11/19 05:54:38;;;;;;;19.75;15.23;;;5.30;99.90;;;;;;4965682;28;20039;-62
2023/11/19 05:57:05;;;;;;;12.57;11.05;;;5.00;99.90;;;;;;4963510;28;20125;-58
2023/11/19 05:59:32;;;;;;;20.88;16.73;;;4.60;99.90;;;;;;4946649;28;21997;-58
2023/11/19 06:01:58;;;;;;;22.38;20.00;;;4.00;99.90;;;;;;4969548;28;20035;-58
2023/11/19 06:04:24;;;;;;;12.68;11.27;;;;;;;;;;4964890;28;20025;-56
2023/11/19 06:06:50;;;;;;;22.25;13.75;;;4.70;99.90;;;;;;4966689;28;20227;-59
2023/11/19 06:09:18;;;;;;;17.88;13.90;;;4.90;99.90;;;;;;4962966;28;20570;-62
2023/11/19 06:11:44;;;;;;;23.40;14.27;;;5.10;99.90;;;;;;4962939;28;20038;-61
2023/11/19 06:14:11;;;;;;;17.95;12.68;;;5.50;99.90;;;;;;4967681;28;20032;-57
2023/11/19 06:16:39;;;;;;;14.32;11.95;;;5.50;99.90;;;;;;4967638;28;20043;-57
2023/11/19 06:19:05;;;;;;;14.30;11.88;;;;;;;;;;4962868;28;20035;-64
2023/11/19 06:21:31;;;;;;;16.60;11.93;;;9.70;99.90;;;;;;4965991;28;20031;-59
2023/11/19 06:23:59;;;;;;;10.05;8.45;;;;;;;;;;4949288;28;20106;-61
2023/11/19 06:26:24;;;;;;;13.13;10.00;;;14.40;99.90;;;;;;4967671;28;20509;-55
2023/11/19 06:28:50;;;;;;;12.18;9.07;;;;;;;;;;4968329;28;20019;-63
2023/11/19 06:31:17;;;;;;;13.07;10.13;;;;;;;;;;4967321;28;20023;-57
2023/11/19 06:33:43;;;;;;;14.30;10.35;;;19.80;88.70;;;;;;4966998;28;20031;-58
2023/11/19 06:36:09;;;;;;;29.08;24.30;;;;;;;;;;4968189;28;20166;-58
2023/11/19 06:38:35;;;;;;;20.70;17.42;;;22.00;84.30;;;;;;4963742;28;20030;-58
2023/11/19 06:41:01;;;;;;;16.35;13.25;;;22.50;83.80;;;;;;4927327;29;20431;-60
2023/11/19 06:43:27;;;;;;;18.95;14.73;;;;;;;;;;4967834;28;20031;-58
2023/11/19 06:45:56;;;;;;;14.73;12.32;;;23.20;78.20;;;;;;4961975;28;20483;-57
2023/11/19 06:48:22;;;;;;;19.25;16.58;;;22.40;77.80;;;;;;4960684;28;20035;-59
2023/11/19 06:50:48;;;;;;;27.25;21.75;;;21.30;76.60;;;;;;4964615;28;20410;-55
2023/11/19 06:53:14;;;;;;;29.42;23.02;;;20.60;76.50;;;;;;4965719;28;20035;-60
2023/11/19 06:55:39;;;;;;;18.67;14.70;;;20.30;77.00;;;;;;4962791;28;20050;-60
2023/11/19 06:58:06;;;;;;;9.55;8.40;;;20.00;76.80;;;;;;4916268;28;20066;-58
2023/11/19 07:00:32;;;;;;;15.45;12.43;;;19.10;77.50;;;;;;4962495;28;20059;-58
2023/11/19 07:02:59;;;;;;;10.55;8.40;;;;;;;;;;4966297;28;20086;-58
2023/11/19 07:05:25;;;;;;;10.10;8.07;;;22.40;91.00;;;;;;4967587;28;20537;-56
2023/11/19 07:07:52;;;;;;;11.43;8.65;;;;;;;;;;4965523;28;20053;-55
2023/11/19 07:10:18;;;;;;;11.07;8.70;;;;;;;;;;4956587;28;20509;-58
2023/11/19 07:12:44;;;;;;;12.65;9.18;;;;;;;;;;4934320;28;20549;-60
2023/11/19 07:15:12;;;;;;;15.98;8.80;;;;;;;;;;4929861;28;21273;-56
2023/11/19 07:17:43;;;;;;;13.20;9.73;;;;;;;;;;4964583;28;20046;-59
2023/11/19 07:20:13;;;;;;;17.00;13.30;;;;;;;;;;4964969;28;20378;-55
2023/11/19 07:22:39;;;;;;;22.17;15.73;;;26.90;71.20;;;;;;4964251;28;20062;-55
2023/11/19 07:25:05;;;;;;;20.75;13.35;;;;;;;;;;4968505;28;20034;-54
2023/11/19 07:27:31;;;;;;;16.13;14.00;;;;;;;;;;4960208;28;20038;-58
2023/11/19 07:29:57;;;;;;;17.27;15.25;;;;;;;;;;4951146;28;20058;-59
2023/11/19 07:32:23;;;;;;;17.02;13.00;;;;;;;;;;4968894;28;20030;-62
2023/11/19 07:34:50;;;;;;;18.73;15.00;;;27.10;66.90;;;;;;4936494;28;20110;-59
2023/11/19 07:37:17;;;;;;;11.95;10.43;;;;;;;;;;4941912;29;20038;-59
2023/11/19 07:39:43;;;;;;;7.82;7.00;;;28.10;67.00;;;;;;4961619;28;20508;-53
2023/11/19 07:42:09;;;;;;;8.30;7.40;;;28.00;66.70;;;;;;4963300;28;20118;-58
2023/11/19 07:44:35;;;;;;;10.27;8.57;;;27.60;66.50;;;;;;4964058;28;20107;-60
2023/11/19 07:47:01;;;;;;;14.65;11.73;;;26.10;66.10;;;;;;4966165;28;20031;-59
2023/11/19 07:49:26;;;;;;;10.35;9.35;;;26.50;67.00;;;;;;4959675;28;20039;-53
2023/11/19 07:51:52;;;;;;;10.95;9.98;;;;;;;;;;4963763;28;20106;-55
2023/11/19 07:54:21;;;;;;;12.65;11.35;;;;;;;;;;4960737;28;20031;-52
2023/11/19 07:56:47;;;;;;;12.57;11.48;;;;;;;;;;4967305;28;20043;-54
2023/11/19 07:59:13;;;;;;;10.77;9.77;;;;;;;;;;4959780;28;20475;-52
2023/11/19 08:01:39;;;;;;;11.63;10.63;;;29.20;65.40;;;;;;4934085;28;20035;-51
2023/11/19 08:04:04;;;;;;;17.13;15.40;;;29.30;65.90;;;;;;4964310;28;20549;-52
2023/11/19 08:06:30;;;;;;;11.38;9.88;;;29.10;65.80;;;;;;4960017;28;20046;-53
2023/11/19 08:08:56;;;;;;;10.85;9.85;;;28.90;65.40;;;;;;4969061;28;20026;-54
2023/11/19 08:11:22;;;;;;;10.25;9.35;;;;;;;;;;4963919;28;20070;-53
2023/11/19 08:13:48;;;;;;;9.82;8.93;;;;;;;;;;4962281;28;20053;-56
2023/11/19 08:16:14;;;;;;;11.52;10.43;;;29.40;63.70;;;;;;4968664;28;20038;-55
2023/11/19 08:18:43;;;;;;;11.68;10.63;;;29.50;64.30;;;;;;4966213;28;20019;-52
2023/11/19 08:21:09;;;;;;;11.43;10.20;;;;;;;;;;4965553;28;20037;-55
2023/11/19 08:23:36;;;;;;;10.50;9.50;;;;;;;;;;4960866;28;20078;-55
2023/11/19 08:26:02;;;;;;;9.63;8.82;;;;;;;;;;4963630;28;20034;-54
2023/11/19 08:28:29;;;;;;;10.75;9.75;;;;;;;;;;4913352;28;20587;-56
2023/11/19 08:30:55;;;;;;;11.38;10.10;;;29.70;63.30;;;;;;4933750;28;20487;-53
2023/11/19 08:33:22;;;;;;;71.25;53.47;;;;;;;;;;4963959;28;20051;-51
2023/11/19 08:35:48;;;;;;;115.35;73.40;;;;;;;;;;4961323;28;20434;-52
2023/11/19 08:38:14;;;;;;;10.15;7.63;;;;;;;;;;4939586;28;20053;-55
2023/11/19 08:40:40;;;;;;;5.95;5.40;;;30.00;61.30;;;;;;4928356;28;20648;-58
2023/11/19 08:43:06;;;;;;;6.80;6.18;;;;;;;;;;4960252;28;20042;-56
2023/11/19 08:45:32;;;;;;;5.28;4.78;;;;;;;;;;4963432;28;20038;-54
2023/11/19 08:47:58;;;;;;;5.55;5.05;;;29.80;60.50;;;;;;4965376;28;20033;-56
2023/11/19 08:50:24;;;;;;;5.32;4.90;;;29.80;61.10;;;;;;4962935;28;20101;-53
2023/11/19 08:52:49;;;;;;;5.93;5.43;;;29.90;61.40;;;;;;4960215;28;20031;-53
2023/11/19 08:55:15;;;;;;;6.20;5.60;;;29.70;60.90;;;;;;4964688;28;20035;-53
2023/11/19 08:57:41;;;;;;;5.15;4.75;;;30.00;60.80;;;;;;4963577;28;20117;-55
2023/11/19 09:00:07;;;;;;;8.52;7.75;;;29.70;61.00;;;;;;4960511;28;20027;-54
2023/11/19 09:02:34;;;;;;;5.47;4.97;;;;;;;;;;4902795;28;20521;-52
2023/11/19 09:05:00;;;;;;;6.28;5.70;;;29.30;59.80;;;;;;4966823;28;20031;-53
2023/11/19 09:07:25;;;;;;;6.55;6.00;;;29.80;61.00;;;;;;4963998;28;20046;-52
2023/11/19 09:09:52;;;;;;;9.43;5.35;;;;;;;;;;4963574;28;20066;-55
2023/11/19 09:12:18;;;;;;;6.47;5.88;;;;;;;;;;4928917;28;20070;-55
2023/11/19 09:14:43;;;;;;;6.25;4.68;;;29.50;92.70;;;;;;4970405;28;20034;-55
2023/11/19 09:17:10;;;;;;;4.05;3.75;;;;;;;;;;4958714;28;20382;-57
2023/11/19 09:19:36;;;;;;;4.80;4.30;;;27.00;88.00;;;;;;4965969;28;20050;-55
2023/11/19 09:22:02;;;;;;;4.80;4.30;;;;;;;;;;4952892;28;20126;-52
2023/11/19 09:24:28;;;;;;;11.90;7.18;;;27.50;60.60;;;;;;4965514;28;20118;-56
2023/11/19 09:26:54;;;;;;;10.18;8.85;;;26.50;61.20;;;;;;4961196;28;20118;-56
2023/11/19 09:29:22;;;;;;;4.43;3.88;;;25.70;61.50;;;;;;4967355;28;20042;-55
2023/11/19 09:31:47;;;;;;;6.00;5.40;;;25.70;61.30;;;;;;4966183;28;20035;-55
2023/11/19 09:34:13;;;;;;;5.07;3.58;;;25.40;61.60;;;;;;4960536;28;20074;-55
2023/11/19 09:36:43;;;;;;;4.40;3.90;;;25.40;61.60;;;;;;4968675;28;20031;-56
2023/11/19 09:39:10;;;;;;;4.82;3.22;;;25.10;61.80;;;;;;4968869;28;20725;-55
2023/11/19 09:41:36;;;;;;;10.10;7.45;;;24.40;61.80;;;;;;4961203;28;20039;-51
2023/11/19 09:44:02;;;;;;;10.48;8.63;;;23.40;62.50;;;;;;4966127;28;20390;-57
2023/11/19 09:46:29;;;;;;;7.68;5.93;;;23.50;67.30;;;;;;4969204;28;20050;-53
2023/11/19 09:48:57;;;;;;;15.80;8.13;;;22.70;78.70;;;;;;4964949;28;20423;-54
2023/11/19 09:51:23;;;;;;;6.22;5.60;;;22.50;65.30;;;;;;4967125;28;20062;-54
2023/11/19 09:53:49;;;;;;;4.95;4.28;;;22.60;65.60;;;;;;4963767;28;20450;-53
2023/11/19 09:56:16;;;;;;;4.85;3.80;;;22.90;65.10;;;;;;4965022;28;20031;-53
2023/11/19 09:58:43;;;;;;;6.50;5.63;;;22.70;75.30;;;;;;4968802;28;20035;-55
2023/11/19 10:01:12;;;;;;;9.77;8.02;;;22.90;75.60;;;;;;4964970;28;20093;-54
2023/11/19 10:03:40;;;;;;;4.78;3.45;;;22.40;85.50;;;;;;4964194;28;20031;-57
2023/11/19 10:06:09;;;;;;;4.50;2.83;;;21.60;64.60;;;;;;4965613;28;20043;-53
2023/11/19 10:08:39;;;;;;;6.55;3.63;;;21.50;65.30;;;;;;4963872;28;20043;-55
2023/11/19 10:11:08;;;;;;;4.78;1.90;;;21.20;65.20;;;;;;4966907;28;20394;-54
2023/11/19 10:13:42;;;;;;;3.35;2.10;;;21.50;64.60;;;;;;4963149;28;20031;-53
2023/11/19 10:16:09;;;;;;;3.47;2.95;;;;;;;;;;4963456;28;20046;-53
2023/11/19 10:18:38;;;;;;;2.95;2.00;;;20.00;81.00;;;;;;4937405;28;20105;-55
2023/11/19 10:21:06;;;;;;;3.65;2.10;;;20.20;65.10;;;;;;4962087;28;20031;-51
2023/11/19 10:23:32;;;;;;;2.65;2.00;;;;;;;;;;4928817;28;20048;-54
2023/11/19 10:26:07;;;;;;;4.93;3.40;;;20.30;67.50;;;;;;4909312;29;20047;-57
2023/11/19 10:28:43;;;;;;;12.00;5.78;;;18.80;66.10;;;;;;4949908;28;20062;-55
2023/11/19 10:31:08;;;;;;;3.90;2.85;;;18.50;68.90;;;;;;4967574;28;20058;-56
2023/11/19 10:33:35;;;;;;;3.10;2.80;;;;;;;;;;4917175;28;20074;-56
2023/11/19 10:36:00;;;;;;;9.23;4.28;;;21.20;76.90;;;;;;4902707;29;20078;-54
2023/11/19 10:38:26;;;;;;;4.38;2.38;;;21.50;67.30;;;;;;4964952;28;20423;-56
2023/11/19 10:40:54;;;;;;;2.90;2.35;;;22.30;66.00;;;;;;4965503;28;20057;-53
2023/11/19 10:43:23;;;;;;;3.10;2.65;;;23.10;78.50;;;;;;4960318;28;20042;-54
2023/11/19 10:45:50;;;;;;;2.40;2.08;;;22.70;65.80;;;;;;4962437;28;20055;-54
2023/11/19 10:48:16;;;;;;;2.72;2.38;;;22.80;65.00;;;;;;4966598;28;20066;-54
2023/11/19 10:50:43;;;;;;;3.42;2.47;;;22.20;64.80;;;;;;4936183;28;20082;-53
2023/11/19 10:53:12;;;;;;;3.92;1.90;;;21.30;65.10;;;;;;4961979;28;20039;-55
2023/11/19 10:55:39;;;;;;;2.45;2.22;;;21.50;65.30;;;;;;4970379;28;20034;-53
2023/11/19 10:58:09;;;;;;;2.63;2.13;;;22.20;65.70;;;;;;4962546;28;20031;-55
2023/11/19 11:00:47;;;;;;;2.97;2.67;;;22.00;65.20;;;;;;4932204;28;20065;-51
2023/11/19 11:03:25;;;;;;;3.20;2.60;;;22.40;65.70;;;;;;4936190;28;20541;-53
2023/11/19 11:05:52;;;;;;;3.47;2.63;;;22.30;66.50;;;;;;4962566;28;20030;-54
2023/11/19 11:08:19;;;;;;;3.55;2.40;;;;;;;;;;4962472;28;20043;-56
2023/11/19 11:10:49;;;;;;;3.70;2.30;;;20.60;78.00;;;;;;4969601;28;20459;-57
2023/11/19 11:13:18;;;;;;;3.17;2.40;;;21.70;66.90;;;;;;4963666;28;20045;-52
2023/11/19 11:15:46;;;;;;;2.92;1.98;;;22.20;65.10;;;;;;4979393;28;21293;-54
2023/11/19 11:18:13;;;;;;;3.13;2.10;;;22.00;64.80;;;;;;4963080;28;20027;-53
2023/11/19 11:20:39;;;;;;;23.05;15.45;;;21.80;65.40;;;;;;4963013;28;20043;-54
2023/11/19 11:23:21;;;;;;;7.72;4.85;;;;;;;;;;4962525;28;20035;-58
2023/11/19 11:25:53;;;;;;;3.72;2.80;;;;;;;;;;4968334;28;20031;-55
2023/11/19 11:28:19;;;;;;;5.35;3.40;;;19.20;76.40;;;;;;4961702;28;20039;-57
2023/11/19 11:31:03;;;;;;;3.85;3.00;;;18.90;85.00;;;;;;4961498;28;20038;-55
2023/11/19 11:34:16;;;;;;;3.53;2.92;;;18.80;90.00;;;;;;4965406;28;20530;-58
2023/11/19 11:37:09;;;;;;;13.98;4.95;;;19.20;80.00;;;;;;4892799;29;20039;-52
2023/11/19 11:39:36;;;;;;;4.45;2.90;;;20.10;74.40;;;;;;4967704;28;20070;-55
2023/11/19 11:42:17;;;;;;;3.00;2.50;;;20.00;80.60;;;;;;4965269;28;20022;-53
2023/11/19 11:45:10;;;;;;;2.95;2.58;;;19.30;83.70;;;;;;4964755;28;20030;-52
2023/11/19 11:47:45;;;;;;;4.78;2.70;;;19.10;68.50;;;;;;4964488;28;20076;-57
2023/11/19 11:50:18;;;;;;;3.22;2.00;;;20.60;70.30;;;;;;4965225;28;20117;-52
2023/11/19 11:52:59;;;;;;;3.13;1.75;;;21.10;73.20;;;;;;4970728;28;20086;-51
2023/11/19 11:55:33;;;;;;;3.42;2.20;;;21.10;67.40;;;;;;4957261;28;21478;-54
2023/11/19 11:57:59;;;;;;;3.97;2.20;;;20.50;66.90;;;;;;4967264;28;20030;-53
2023/11/19 12:00:39;;;;;;;4.07;2.80;;;19.90;67.10;;;;;;4965443;28;20032;-52
2023/11/19 12:03:07;;;;;;;3.13;2.50;;;19.80;68.10;;;;;;4961367;28;20027;-55
2023/11/19 12:05:38;;;;;;;3.58;2.83;;;19.40;71.70;;;;;;4965884;28;20096;-54
2023/11/19 12:08:06;;;;;;;2.97;2.22;;;19.50;75.40;;;;;;4968876;28;20031;-51
2023/11/19 12:10:37;;;;;;;5.93;3.88;;;19.40;69.50;;;;;;4962658;28;20111;-53
2023/11/19 12:13:07;;;;;;;7.25;4.45;;;19.50;70.10;;;;;;4958843;28;20046;-54
2023/11/19 12:15:33;;;;;;;3.17;2.10;;;19.30;71.40;;;;;;4965492;28;20035;-54
2023/11/19 12:17:59;;;;;;;3.13;2.40;;;19.00;69.00;;;;;;4965359;28;20471;-51
2023/11/19 12:20:26;;;;;;;4.05;2.60;;;19.10;70.40;;;;;;4962892;28;20118;-52
2023/11/19 12:22:53;;;;;;;3.17;2.35;;;19.40;70.10;;;;;;4966890;28;20422;-54
2023/11/19 12:25:20;;;;;;;7.65;5.57;;;19.40;69.00;;;;;;4963151;28;20027;-54
2023/11/19 12:27:50;;;;;;;3.00;2.08;;;19.00;68.60;;;;;;4963434;28;20035;-54
2023/11/19 12:30:26;;;;;;;2.70;1.83;;;19.10;68.90;;;;;;4968000;28;20030;-54
2023/11/19 12:32:55;;;;;;;3.53;2.15;;;19.20;68.90;;;;;;4965268;28;20181;-54
2023/11/19 12:35:22;;;;;;;2.75;2.05;;;;;;;;;;4963843;28;20250;-53
2023/11/19 12:37:50;;;;;;;3.58;2.50;;;17.50;68.50;;;;;;4962115;28;20092;-52
2023/11/19 12:40:18;;;;;;;3.90;2.78;;;17.70;69.80;;;;;;4963821;28;20041;-53
2023/11/19 12:42:51;;;;;;;4.10;2.42;;;18.20;80.40;;;;;;4956527;28;20034;-52
2023/11/19 12:45:19;;;;;;;3.20;2.17;;;18.10;80.80;;;;;;4944684;29;20054;-52
2023/11/19 12:47:47;;;;;;;3.53;2.67;;;17.20;70.20;;;;;;4942282;28;20051;-57
2023/11/19 12:50:13;;;;;;;3.08;2.30;;;17.30;71.10;;;;;;4938053;29;20047;-54
2023/11/19 12:52:39;;;;;;;2.60;1.77;;;17.50;71.50;;;;;;4925938;29;20051;-56
2023/11/19 12:55:24;;;;;;;2.13;1.80;;;17.00;70.60;;;;;;4939403;29;20514;-54
2023/11/19 12:57:50;;;;;;;4.22;2.60;;;16.60;71.20;;;;;;4941190;29;20598;-53
2023/11/19 13:00:22;;;;;;;8.05;4.95;;;;;;;;;;4946449;29;20195;-51
2023/11/19 13:02:53;;;;;;;6.93;5.40;;;16.50;85.90;;;;;;4936796;28;20028;-54
2023/11/19 13:05:34;;;;;;;18.13;11.60;;;16.10;72.40;;;;;;4941672;29;20519;-53
2023/11/19 13:08:01;;;;;;;9.57;6.20;;;16.00;73.20;;;;;;4920936;29;20062;-50